Decoded Metar for KLBL (LIBERAL in KS, USA) (IATA:LBL) | Meteo·Mobile Aviation Weather
aviador You're here:

KLBL Decoded Metar

LIBERAL in KS, USA
Report Time2019-03-19 18:56:00
UTC Time2019-03-19 19:09:54
Flight Rules vfr VFR
Wind330° at 16 kt
W.Decomp.*RWY 35: 13.9 kt HW 8 kt LCW
RWY 04: 2.8 kt HW 15.8 kt LCW
W.Rank330° ranks 14
Current wind is above 330° avg. (10.8)
Visibility9999 m
Phenomena:N/A
Clouds:Scattered 043 Hf
Broken 085 Hf
Expected CloudBase > 2,400 ft AGL from Temp-Dew spread
Ceiling8,500 ft
Temp10°C (ISA +1)
Dew Point04°C (67% RH)
AAT2.9°C
QNH1022 hPa
Density Alt2,785 ft
Elevation2,884 ft
Report Wrong Elevation
Raw Report
KLBL 191856Z AUTO 33016KT 10SM SCT043 BKN085 10/04 A3019 RMK AO2
RAE55 SLP223 P0000 T01000039=

Extra information for KLBL:More info

Metar Taf Metar & Taf Last 4 Metars F.Rules Stats Wind Profile Meteogram Temp Stats Airport Information Weather charts Add Link Nearby VenuesMetar ALERT Operation Metar Decoded Social comments

AIRNAV info for KLBL